D/T METAR WX W/DIR W/SPE G/SPE TEMP DEWP
5/06/20 06:50 EGNS 050550Z 33017KT 270V010 9999 FEW022 10/04 Q0998 NOSIG NNW (330°) 19.6mph 10°C 4°C
5/06/20 06:20 EGNS 050520Z 32018KT 9999 FEW022 09/04 Q0998 NW (320°) 20.7mph 9°C 4°C
5/06/20 05:50 EGNS 050450Z 32017KT 280V010 9999 FEW024 09/04 Q0997 NW (320°) 19.6mph 9°C 4°C
5/06/20 05:20 EGNS 050420Z 32018G28KT 280V350 9999 FEW024 10/03 Q0997 NW (320°) 20.7mph 32.2mph 10°C 3°C
5/06/20 04:50 EGNS 050350Z 33016KT 290V360 9999 FEW024 09/04 Q0997 NNW (330°) 18.4mph 9°C 4°C
5/06/20 03:50 EGNS 050250Z 33015G26KT 300V010 9999 FEW020 10/05 Q0998 NNW (330°) 17.3mph 29.9mph 10°C 5°C
5/06/20 02:50 EGNS 050150Z 32014KT 280V360 9999 FEW020 10/05 Q0998 NW (320°) 16.1mph 10°C 5°C
5/06/20 01:50 EGNS 050050Z 32017G30KT 270V030 9999 FEW020 SCT040 10/06 Q0998 NW (320°) 19.6mph 34.5mph 10°C 6°C
5/06/20 00:50 EGNS 042350Z 32013G24KT 280V360 9999 FEW022 10/05 Q0999 NW (320°) 15.0mph 27.6mph 10°C 5°C
4/06/20 23:50 EGNS 042250Z VRB11KT 9999 FEW028 11/05 Q0999 N (0°) 12.7mph 11°C 5°C
4/06/20 22:50 EGNS 042150Z 31008KT 260V360 9999 SCT048 11/06 Q1000 NW (310°) 9.2mph 11°C 6°C
4/06/20 21:50 EGNS 042050Z 33009KT 250V020 CAVOK 11/06 Q1000 NNW (330°) 10.4mph 11°C 6°C
4/06/20 20:50 EGNS 041950Z 33011KT 300V360 9999 FEW018 SCT040 11/06 Q1000 NNW (330°) 12.7mph 11°C 6°C
4/06/20 20:20 EGNS 041920Z 33008KT 300V010 9999 FEW018 SCT025 11/06 Q1000 NOSIG NNW (330°) 9.2mph 11°C 6°C
4/06/20 19:50 EGNS 041850Z 34009KT 310V010 9999 FEW018 SCT045 11/07 Q1000 NOSIG NNW (340°) 10.4mph 11°C 7°C
4/06/20 19:20 EGNS 041820Z 35009KT 300V020 9999 FEW018 SCT045 12/07 Q1000 NOSIG N (350°) 10.4mph 12°C 7°C
4/06/20 18:50 EGNS 041750Z 34008KT 310V010 9999 FEW018 SCT040 12/07 Q1001 NOSIG NNW (340°) 9.2mph 12°C 7°C
4/06/20 18:20 EGNS 041720Z 31011KT 9999 FEW014 SCT040 12/08 Q1001 NOSIG NW (310°) 12.7mph 12°C 8°C
4/06/20 17:50 EGNS 041650Z 31009KT 9999 FEW013 SCT020 BKN027 12/07 Q1001 NOSIG NW (310°) 10.4mph 12°C 7°C
4/06/20 17:20 EGNS 041620Z 31008KT 9999 FEW018 BKN027 12/08 Q1001 NOSIG NW (310°) 9.2mph 12°C 8°C
4/06/20 16:20 EGNS 041520Z 28005KT 9999 FEW008 SCT030 12/11 Q1001 NOSIG W (280°) 5.8mph 12°C 11°C
4/06/20 15:20 EGNS 041420Z 27008KT 7000 -SHRA FEW008 BKN014 OVC030 12/10 Q1002 BECMG 9999 NSW -SHRA W (270°) 9.2mph 12°C 10°C
4/06/20 14:50 EGNS 041350Z 28009KT 250V310 9999 -SHRA FEW008 BKN014 OVC030 12/10 Q1002 NOSIG -SHRA W (280°) 10.4mph 12°C 10°C
4/06/20 14:20 EGNS 041320Z 27012KT 9999 SCT014 BKN032 13/09 Q1003 NOSIG W (270°) 13.8mph 13°C 9°C
4/06/20 13:50 EGNS 041250Z 28012KT 240V310 9999 FEW012 SCT017 BKN030 13/09 Q1003 NOSIG W (280°) 13.8mph 13°C 9°C
4/06/20 13:20 EGNS 041220Z 27012KT 9999 FEW010 SCT018 OVC047 13/08 Q1003 NOSIG W (270°) 13.8mph 13°C 8°C
4/06/20 12:50 EGNS 041150Z 27012KT 9999 FEW009 SCT018 12/10 Q1004 NOSIG W (270°) 13.8mph 12°C 10°C
4/06/20 11:50 EGNS 041050Z 29010KT 260V320 9999 SCT015 12/08 Q1005 WNW (290°) 11.5mph 12°C 8°C
4/06/20 10:50 EGNS 040950Z 30010KT 9999 SCT015 11/08 Q1005 WNW (300°) 11.5mph 11°C 8°C
4/06/20 09:50 EGNS 040850Z 30014KT 9999 SCT015 12/07 Q1005 WNW (300°) 16.1mph 12°C 7°C
4/06/20 09:20 EGNS 040820Z 31014KT 9999 BKN015 12/07 Q1006 NOSIG NW (310°) 16.1mph 12°C 7°C
4/06/20 08:50 EGNS 040750Z 31014KT 9999 BKN015 11/07 Q1006 NOSIG NW (310°) 16.1mph 11°C 7°C
4/06/20 08:20 EGNS 040720Z 30014KT 9999 FEW015 11/07 Q1006 NOSIG WNW (300°) 16.1mph 11°C 7°C
4/06/20 07:50 EGNS 040650Z 30014KT 9999 BKN017 11/07 Q1006 NOSIG WNW (300°) 16.1mph 11°C 7°C
4/06/20 07:20 EGNS 040620Z 31014KT 290V350 9999 FEW017 11/06 Q1006 / NOSIG NW (310°) 16.1mph 11°C 6°C
4/06/20 06:50 EGNS 040550Z 32011KT 280V360 9999 FEW017 10/07 Q1007 NOSIG NW (320°) 12.7mph 10°C 7°C
4/06/20 06:20 EGNS 040520Z 32018KT 9999 FEW018 10/06 Q1007 NOSIG NW (320°) 20.7mph 10°C 6°C
4/06/20 05:50 EGNS 040450Z 31016KT 9999 FEW020 10/05 Q1007 NW (310°) 18.4mph 10°C 5°C
4/06/20 05:20 EGNS 040420Z 32013KT 9999 FEW020 10/06 Q1007 NOSIG NW (320°) 15.0mph 10°C 6°C
4/06/20 04:50 EGNS 040350Z 33011KT 270V020 9999 FEW020 10/06 Q1008 NNW (330°) 12.7mph 10°C 6°C
4/06/20 03:50 EGNS 040250Z 33008KT 280V010 9999 FEW017 10/07 Q1009 NNW (330°) 9.2mph 10°C 7°C
4/06/20 02:50 EGNS 040150Z 34010KT 310V030 9999 FEW017 10/07 Q1010 NNW (340°) 11.5mph 10°C 7°C
4/06/20 00:50 EGNS 032350Z 33012KT 280V010 CAVOK 10/07 Q1011 NNW (330°) 13.8mph 10°C 7°C
3/06/20 23:50 EGNS 032250Z 33013KT CAVOK 11/07 Q1012 NNW (330°) 15.0mph 11°C 7°C
3/06/20 22:50 EGNS 032150Z 35012KT 310V020 CAVOK 11/07 Q1012 N (350°) 13.8mph 11°C 7°C
3/06/20 21:50 EGNS 032050Z 34010KT 310V010 9999 FEW010 11/07 Q1013 NNW (340°) 11.5mph 11°C 7°C
3/06/20 20:50 EGNS 031950Z 33011KT 300V010 CAVOK 12/06 Q1013 NNW (330°) 12.7mph 12°C 6°C
3/06/20 20:20 EGNS 031920Z 34007KT 9999 SCT045 13/07 Q1013 NOSIG NNW (340°) 8.1mph 13°C 7°C
3/06/20 19:50 EGNS 031850Z 33009KT 300V010 9999 FEW045 13/06 Q1013 NOSIG NNW (330°) 10.4mph 13°C 6°C
3/06/20 19:20 EGNS 031820Z 33010KT 300V020 9999 FEW040 BKN045 13/06 Q1013 NOSIG NNW (330°) 11.5mph 13°C 6°C
3/06/20 18:50 EGNS 031750Z 34008KT 300V010 9999 BKN040 13/07 Q1013 NOSIG NNW (340°) 9.2mph 13°C 7°C
3/06/20 18:20 EGNS 031720Z 35008KT 310V030 9999 BKN036 13/06 Q1013 NOSIG N (350°) 9.2mph 13°C 6°C
3/06/20 17:50 EGNS 031650Z 03009KT 360V080 9999 BKN034 14/05 Q1013 NOSIG NNE (30°) 10.4mph 14°C 5°C
3/06/20 16:50 EGNS 031550Z 03009KT 340V070 9999 BKN036 14/05 Q1014 NOSIG NNE (30°) 10.4mph 14°C 5°C
3/06/20 16:20 EGNS 031520Z 03012KT 9999 BKN040 15/04 Q1014 NOSIG NNE (30°) 13.8mph 15°C 4°C
3/06/20 15:50 EGNS 031450Z 02012KT 9999 BKN038 14/04 Q1014 NOSIG NNE (20°) 13.8mph 14°C 4°C
3/06/20 15:20 EGNS 031420Z 03012KT 9999 BKN036 15/05 Q1014 NOSIG NNE (30°) 13.8mph 15°C 5°C
3/06/20 14:50 EGNS 031350Z 02014KT 9999 BKN036 14/04 Q1014 NOSIG NNE (20°) 16.1mph 14°C 4°C
3/06/20 14:20 EGNS 031320Z 04017KT 9999 BKN036 14/04 Q1014 NOSIG NE (40°) 19.6mph 14°C 4°C
3/06/20 13:50 EGNS 031250Z 04017KT 9999 BKN032 15/05 Q1014 NOSIG NE (40°) 19.6mph 15°C 5°C
3/06/20 13:20 EGNS 031220Z 03017KT 9999 BKN030 15/06 Q1014 NOSIG NNE (30°) 19.6mph 15°C 6°C
3/06/20 12:50 EGNS 031150Z 03014KT 340V070 9999 SCT030 13/05 Q1014 NOSIG NNE (30°) 16.1mph 13°C 5°C
3/06/20 11:50 EGNS 031050Z 03020KT 9999 SCT025 14/06 Q1015 NNE (30°) 23.0mph 14°C 6°C
3/06/20 09:50 EGNS 030850Z 04019KT 9999 FEW018 12/08 Q1014 NE (40°) 21.9mph 12°C 8°C
3/06/20 09:20 EGNS 030820Z 04023KT 9999 FEW015 12/08 Q1013 NOSIG NE (40°) 26.5mph 12°C 8°C
3/06/20 08:50 EGNS 030750Z 04023KT 9999 FEW015 11/07 Q1013 NOSIG NE (40°) 26.5mph 11°C 7°C
3/06/20 08:20 EGNS 030720Z 03021G33KT 9999 FEW015 BKN048 11/08 Q1013 NOSIG NNE (30°) 24.2mph 38.0mph 11°C 8°C
3/06/20 07:50 EGNS 030650Z 04022G33KT 9999 -RA FEW015 BKN040 11/08 Q1013 NOSIG -RA NE (40°) 25.3mph 38.0mph 11°C 8°C
3/06/20 07:20 EGNS 030620Z 05023KT 9999 FEW015 BKN043 11/08 Q1012 NOSIG NE (50°) 26.5mph 11°C 8°C
3/06/20 06:50 EGNS 030550Z 05021KT 9999 FEW006 BKN044 11/08 Q1012 TEMPO 7000 RA BKN006 NE (50°) 24.2mph 11°C 8°C
3/06/20 06:20 EGNS 030520Z 04019G30KT 9999 FEW015 BKN040 12/09 Q1012 TEMPO 7000 RA BKN012 NE (40°) 21.9mph 34.5mph 12°C 9°C
3/06/20 05:50 EGNS 030450Z 03013KT 9999 -RA FEW006 BKN038 12/09 Q1012 TEMPO 7000 RADZ BKN012 -RA NNE (30°) 15.0mph 12°C 9°C
3/06/20 05:20 EGNS 030420Z 01011KT 9999 SCT006 BKN015 BKN040 12/11 Q1012 TEMPO 7000 RADZ BKN006 N (10°) 12.7mph 12°C 11°C
3/06/20 04:50 EGNS 030350Z 35012KT 7000 FEW006 SCT016 BKN038 12/11 Q1012 N (350°) 13.8mph 12°C 11°C
3/06/20 03:50 EGNS 030250Z 34009KT 9999 FEW010 SCT035 12/11 Q1013 NNW (340°) 10.4mph 12°C 11°C
3/06/20 02:50 EGNS 030150Z 35007KT 330V030 9999 FEW006 BKN045 13/12 Q1013 RERA N (350°) 8.1mph 13°C 12°C
3/06/20 00:50 EGNS 022350Z 35018KT 9999 -RA NSC 14/11 Q1014 -RA N (350°) 20.7mph 14°C 11°C
2/06/20 23:50 EGNS 022250Z 36016KT CAVOK 14/10 Q1014 N (360°) 18.4mph 14°C 10°C
2/06/20 22:50 EGNS 022150Z 35013KT 9999 FEW012 15/10 Q1015 N (350°) 15.0mph 15°C 10°C
2/06/20 21:50 EGNS 022050Z 01005KT 330V030 9999 FEW012 15/10 Q1015 N (10°) 5.8mph 15°C 10°C
2/06/20 20:50 EGNS 021950Z 31004KT 230V020 9999 -RA NSC 17/10 Q1016 -RA NW (310°) 4.6mph 17°C 10°C
2/06/20 20:20 EGNS 021920Z 31007KT 270V330 9999 -RA NSC 17/09 Q1016 NOSIG -RA NW (310°) 8.1mph 17°C 9°C
2/06/20 19:50 EGNS 021850Z 30007KT 9999 -RA NSC 18/08 Q1016 NOSIG -RA WNW (300°) 8.1mph 18°C 8°C
2/06/20 19:20 EGNS 021820Z 28010KT CAVOK 18/06 Q1016 NOSIG W (280°) 11.5mph 18°C 6°C
2/06/20 18:50 EGNS 021750Z 28008KT 260V320 CAVOK 19/07 Q1016 NOSIG W (280°) 9.2mph 19°C 7°C
2/06/20 18:20 EGNS 021720Z 23008KT CAVOK 19/05 Q1016 NOSIG SW (230°) 9.2mph 19°C 5°C
2/06/20 17:50 EGNS 021650Z 23008KT CAVOK 20/05 Q1017 NOSIG SW (230°) 9.2mph 20°C 5°C
2/06/20 17:20 EGNS 021620Z 24008KT CAVOK 20/04 Q1017 NOSIG WSW (240°) 9.2mph 20°C 4°C
2/06/20 16:50 EGNS 021550Z 22008KT CAVOK 20/04 Q1018 NOSIG SW (220°) 9.2mph 20°C 4°C
2/06/20 16:20 EGNS 021520Z 22009KT CAVOK 21/06 Q1018 NOSIG SW (220°) 10.4mph 21°C 6°C
2/06/20 15:50 EGNS 021450Z 23010KT CAVOK 21/05 Q1018 NOSIG SW (230°) 11.5mph 21°C 5°C
2/06/20 15:20 EGNS 021420Z 23010KT CAVOK 21/05 Q1019 NOSIG SW (230°) 11.5mph 21°C 5°C
2/06/20 14:50 EGNS 021350Z 23011KT CAVOK 20/05 Q1019 NOSIG SW (230°) 12.7mph 20°C 5°C
2/06/20 14:20 EGNS 021320Z 23010KT CAVOK 21/07 Q1019 NOSIG SW (230°) 11.5mph 21°C 7°C
2/06/20 13:50 EGNS 021250Z 23011KT CAVOK 21/07 Q1020 NOSIG SW (230°) 12.7mph 21°C 7°C
2/06/20 13:20 EGNS 021220Z 23009KT CAVOK 20/08 Q1020 NOSIG SW (230°) 10.4mph 20°C 8°C